Time;durP1;ratioP1;P1;durP2;ratioP2;P2;SDS_P1;SDS_P2;PMS_P1;PMS_P2;Temp;Humidity;BMP_temperature;BMP_pressure;BME280_temperature;BME280_humidity;BME280_pressure;Samples;Min_cycle;Max_cycle;Signal;HPM_P1;HPM_P2
2022/08/18 00:01:47;;;;;;;2.80;1.70;;;20.90;63.00;;;;;;5024422;28;20021;-86
2022/08/18 00:04:13;;;;;;;1.90;1.67;;;20.80;62.80;;;;;;5014713;28;20044;-87
2022/08/18 00:06:46;;;;;;;3.42;2.13;;;20.80;62.90;;;;;;5027055;28;20443;-86
2022/08/18 00:09:12;;;;;;;2.17;1.63;;;20.80;62.90;;;;;;5028404;28;20024;-86
2022/08/18 00:11:41;;;;;;;5.47;2.38;;;20.80;62.90;;;;;;4998233;28;20385;-87
2022/08/18 00:14:12;;;;;;;2.92;2.15;;;20.80;63.00;;;;;;4998470;28;20432;-86
2022/08/18 00:16:38;;;;;;;2.60;2.40;;;20.80;63.00;;;;;;5017016;28;20043;-89
2022/08/18 00:19:04;;;;;;;3.38;1.92;;;20.80;63.00;;;;;;4994287;28;20044;-86
2022/08/18 00:21:30;;;;;;;2.72;1.83;;;20.80;63.10;;;;;;5016347;28;20557;-88
2022/08/18 00:23:55;;;;;;;2.65;1.85;;;20.80;63.00;;;;;;5020795;28;20048;-88
2022/08/18 00:26:21;;;;;;;3.58;1.95;;;20.80;63.10;;;;;;5016350;28;20026;-88
2022/08/18 00:28:47;;;;;;;2.10;1.70;;;20.80;63.10;;;;;;5002510;28;20059;-87
2022/08/18 00:31:15;;;;;;;2.17;1.75;;;20.80;63.10;;;;;;5027378;28;20260;-88
2022/08/18 00:33:42;;;;;;;2.97;1.80;;;20.80;63.10;;;;;;5024025;28;20059;-87
2022/08/18 00:36:10;;;;;;;3.42;1.90;;;20.80;63.10;;;;;;5016126;28;20359;-86
2022/08/18 00:38:36;;;;;;;2.83;1.63;;;20.80;63.20;;;;;;5001156;28;20296;-88
2022/08/18 00:41:04;;;;;;;2.95;2.17;;;20.80;63.20;;;;;;5002277;28;20059;-89
2022/08/18 00:43:36;;;;;;;4.15;2.20;;;20.80;63.20;;;;;;5014312;28;20040;-86
2022/08/18 00:46:06;;;;;;;3.33;2.15;;;20.80;63.30;;;;;;5027443;28;20082;-86
2022/08/18 00:48:32;;;;;;;3.10;2.00;;;20.80;63.20;;;;;;5000648;28;20037;-85
2022/08/18 00:51:03;;;;;;;2.58;1.90;;;20.80;63.20;;;;;;4997905;28;20025;-85
2022/08/18 00:53:45;;;;;;;3.35;2.47;;;20.70;63.10;;;;;;5013672;28;20025;-87
2022/08/18 00:56:21;;;;;;;1.90;1.60;;;20.70;63.20;;;;;;5014473;28;20369;-86
2022/08/18 00:59:08;;;;;;;3.45;2.03;;;20.70;63.10;;;;;;5016466;28;20045;-85
2022/08/18 01:01:36;;;;;;;4.13;2.75;;;20.70;63.20;;;;;;5000851;28;20033;-86
2022/08/18 01:04:18;;;;;;;2.53;2.00;;;20.70;63.20;;;;;;5024238;28;20077;-86
2022/08/18 01:07:00;;;;;;;3.08;2.35;;;20.70;63.20;;;;;;5026050;28;20044;-88
2022/08/18 01:09:27;;;;;;;3.42;2.08;;;20.70;63.30;;;;;;5026267;28;20221;-89
2022/08/18 01:11:53;;;;;;;4.03;2.05;;;20.60;63.00;;;;;;4997520;28;20368;-88
2022/08/18 01:14:20;;;;;;;3.55;2.28;;;20.60;63.10;;;;;;5013547;28;20043;-86
2022/08/18 01:22:48;;;;;;;5.20;2.60;;;20.60;63.20;;;;;;5017769;28;20111;-88
2022/08/18 01:28:05;;;;;;;5.40;2.63;;;20.60;63.30;;;;;;4999808;28;20045;-87
2022/08/18 01:30:43;;;;;;;4.00;3.10;;;20.60;63.30;;;;;;4978845;28;20130;-89
2022/08/18 01:33:13;;;;;;;4.07;2.58;;;20.50;63.30;;;;;;5013520;28;20036;-90
2022/08/18 01:35:42;;;;;;;3.42;2.42;;;20.60;63.40;;;;;;4995344;28;20462;-90
2022/08/18 01:38:08;;;;;;;3.00;2.05;;;20.50;63.30;;;;;;5013200;28;20049;-89
2022/08/18 01:40:34;;;;;;;3.67;2.20;;;20.50;63.40;;;;;;5013823;28;20032;-89
2022/08/18 01:43:03;;;;;;;3.50;2.05;;;20.50;63.50;;;;;;5013195;28;20481;-90
2022/08/18 01:45:34;;;;;;;2.90;2.58;;;20.50;63.50;;;;;;4994517;28;20022;-87
2022/08/18 01:48:00;;;;;;;2.95;2.05;;;20.50;63.60;;;;;;5014112;28;20496;-85
2022/08/18 01:50:26;;;;;;;3.95;2.42;;;20.50;63.60;;;;;;5023921;28;20631;-87
2022/08/18 01:52:52;;;;;;;3.75;2.10;;;20.50;63.70;;;;;;5014698;28;20476;-86
2022/08/18 01:55:19;;;;;;;2.38;2.17;;;20.50;63.70;;;;;;5036277;28;20069;-86
2022/08/18 01:57:45;;;;;;;5.90;3.17;;;20.50;63.70;;;;;;5034857;28;20122;-85
2022/08/18 02:00:14;;;;;;;2.85;2.50;;;20.40;63.50;;;;;;5025455;28;20056;-85
2022/08/18 02:02:42;;;;;;;3.30;2.13;;;20.40;63.60;;;;;;5050725;28;20032;-86
2022/08/18 02:05:15;;;;;;;3.28;2.30;;;20.40;63.60;;;;;;5028393;28;20033;-86
2022/08/18 02:07:40;;;;;;;4.80;2.35;;;20.40;63.70;;;;;;5020927;28;20044;-86
2022/08/18 02:10:09;;;;;;;2.65;2.10;;;20.40;63.70;;;;;;5026779;28;20102;-87
2022/08/18 02:12:36;;;;;;;3.03;2.22;;;20.40;63.70;;;;;;5009904;28;20040;-90
2022/08/18 02:15:03;;;;;;;3.92;2.72;;;20.40;63.70;;;;;;5008741;28;20033;-88
2022/08/18 02:17:39;;;;;;;3.35;2.40;;;20.40;63.80;;;;;;5029859;28;20471;-89
2022/08/18 02:20:07;;;;;;;2.90;1.92;;;20.40;63.80;;;;;;5031492;28;20018;-89
2022/08/18 02:22:35;;;;;;;3.53;2.17;;;20.40;63.80;;;;;;5000317;28;20564;-86
2022/08/18 02:25:01;;;;;;;5.93;2.25;;;20.40;63.90;;;;;;5006227;28;20052;-86
2022/08/18 02:27:27;;;;;;;3.40;2.60;;;20.30;63.80;;;;;;5017361;28;20056;-86
2022/08/18 02:29:54;;;;;;;3.58;2.08;;;20.30;63.80;;;;;;5002795;28;20047;-85
2022/08/18 02:32:21;;;;;;;3.95;2.78;;;20.30;63.80;;;;;;5007066;28;20389;-86
2022/08/18 02:34:47;;;;;;;4.55;2.38;;;20.30;63.90;;;;;;5018546;28;20033;-87
2022/08/18 02:37:12;;;;;;;2.22;2.03;;;20.30;63.90;;;;;;5013129;28;20036;-86
2022/08/18 02:39:38;;;;;;;2.78;2.15;;;20.30;63.90;;;;;;5026647;28;20041;-87
2022/08/18 02:42:06;;;;;;;3.22;2.25;;;20.30;64.60;;;;;;5014739;28;20021;-86
2022/08/18 02:44:32;;;;;;;4.32;2.47;;;20.30;64.10;;;;;;5018533;28;20520;-86
2022/08/18 02:46:58;;;;;;;4.32;2.92;;;20.30;64.10;;;;;;5030032;28;20035;-85
2022/08/18 02:49:25;;;;;;;3.42;2.53;;;20.30;64.10;;;;;;5039655;28;20033;-85
2022/08/18 02:51:52;;;;;;;3.22;2.42;;;20.30;64.10;;;;;;5004159;28;20353;-86
2022/08/18 02:54:21;;;;;;;2.38;1.83;;;20.30;64.10;;;;;;5017531;28;20037;-87
2022/08/18 02:56:51;;;;;;;4.38;2.83;;;20.30;64.20;;;;;;5021451;28;20400;-87
2022/08/18 02:59:19;;;;;;;4.28;2.50;;;20.30;64.20;;;;;;5018337;28;20136;-87
2022/08/18 03:01:49;;;;;;;2.45;2.25;;;20.30;64.20;;;;;;5023742;28;20056;-87
2022/08/18 03:04:25;;;;;;;3.22;2.38;;;20.20;64.00;;;;;;5002208;28;20029;-87
2022/08/18 03:06:54;;;;;;;3.42;2.78;;;20.30;64.30;;;;;;4997998;28;20573;-87
2022/08/18 03:09:21;;;;;;;3.25;1.90;;;20.20;64.10;;;;;;5022858;28;20383;-86
2022/08/18 03:11:47;;;;;;;4.50;2.35;;;20.20;64.10;;;;;;5040652;28;20026;-86
2022/08/18 03:14:15;;;;;;;4.22;2.33;;;20.20;64.20;;;;;;5036401;28;20030;-85
2022/08/18 03:16:44;;;;;;;2.60;2.40;;;20.20;64.20;;;;;;5019677;28;20037;-90
2022/08/18 03:19:10;;;;;;;4.50;2.33;;;20.20;64.30;;;;;;5022263;28;20044;-88
2022/08/18 03:21:36;;;;;;;5.05;2.40;;;20.20;64.30;;;;;;5031897;28;20388;-88
2022/08/18 03:24:03;;;;;;;4.75;2.75;;;20.20;64.40;;;;;;5024212;28;20071;-85
2022/08/18 03:26:31;;;;;;;4.78;2.42;;;20.10;64.20;;;;;;5033720;28;20128;-82
2022/08/18 03:28:59;;;;;;;5.20;2.88;;;20.10;64.30;;;;;;5034537;28;20029;-83
2022/08/18 03:31:28;;;;;;;4.88;2.60;;;20.10;64.30;;;;;;5008371;28;20125;-84
2022/08/18 03:33:56;;;;;;;4.32;2.83;;;20.10;64.40;;;;;;5033835;28;20113;-85
2022/08/18 03:36:25;;;;;;;3.80;2.72;;;20.10;64.40;;;;;;5033021;28;20685;-82
2022/08/18 03:38:52;;;;;;;5.78;3.00;;;20.10;64.40;;;;;;5029314;28;20106;-82
2022/08/18 03:41:21;;;;;;;2.40;2.08;;;20.10;64.40;;;;;;5029756;28;20256;-84
2022/08/18 03:43:49;;;;;;;3.72;2.13;;;20.10;64.50;;;;;;5050840;28;20040;-82
2022/08/18 03:46:17;;;;;;;4.10;2.58;;;20.00;64.90;;;;;;5048792;28;20021;-82
2022/08/18 03:48:45;;;;;;;3.78;1.80;;;20.00;64.40;;;;;;5019368;28;20060;-82
2022/08/18 03:51:17;;;;;;;3.33;2.67;;;20.00;64.40;;;;;;5051964;28;20090;-84
2022/08/18 03:53:44;;;;;;;2.85;2.03;;;20.00;64.50;;;;;;5053012;28;20073;-84
2022/08/18 03:56:16;;;;;;;4.97;2.63;;;20.00;64.50;;;;;;5045028;28;20360;-83
2022/08/18 03:58:46;;;;;;;4.03;2.65;;;20.00;64.60;;;;;;5018310;28;20057;-84
2022/08/18 04:01:16;;;;;;;3.70;2.20;;;19.90;64.50;;;;;;4995203;28;20030;-83
2022/08/18 04:03:44;;;;;;;4.13;2.65;;;19.90;64.60;;;;;;5016676;28;20091;-84
2022/08/18 04:06:15;;;;;;;4.82;2.67;;;19.90;64.60;;;;;;5018867;28;20433;-84
2022/08/18 04:08:43;;;;;;;3.90;2.63;;;19.80;64.60;;;;;;5025393;28;20119;-82
2022/08/18 04:11:11;;;;;;;2.90;2.22;;;19.80;64.60;;;;;;5029271;28;20021;-83
2022/08/18 04:13:38;;;;;;;4.45;2.80;;;19.80;64.60;;;;;;5025563;28;20026;-82
2022/08/18 04:16:04;;;;;;;3.65;2.15;;;19.80;64.70;;;;;;5002373;28;20056;-83
2022/08/18 04:18:30;;;;;;;3.92;2.63;;;19.70;64.60;;;;;;5018475;28;20061;-81
2022/08/18 04:21:01;;;;;;;4.18;2.40;;;19.70;64.70;;;;;;5029509;28;20369;-81
2022/08/18 04:23:27;;;;;;;3.97;2.47;;;19.70;64.80;;;;;;5019343;28;20103;-83
2022/08/18 04:25:57;;;;;;;3.67;2.25;;;19.70;64.80;;;;;;5033265;28;20088;-86
2022/08/18 04:28:24;;;;;;;3.10;1.98;;;19.70;64.90;;;;;;4979728;28;20038;-84
2022/08/18 04:30:52;;;;;;;5.40;3.17;;;19.60;64.70;;;;;;5039113;28;20018;-85
2022/08/18 04:33:19;;;;;;;6.18;2.58;;;19.60;64.80;;;;;;5027049;28;20409;-84
2022/08/18 04:35:45;;;;;;;4.93;2.67;;;19.60;64.80;;;;;;4994441;28;20082;-83
2022/08/18 04:38:12;;;;;;;4.70;2.40;;;19.60;64.90;;;;;;5028355;28;20045;-84
2022/08/18 04:40:40;;;;;;;5.60;2.25;;;19.60;64.90;;;;;;5025076;28;20029;-84
2022/08/18 04:43:13;;;;;;;4.57;2.67;;;19.60;65.00;;;;;;5010297;28;20045;-85
2022/08/18 04:45:43;;;;;;;4.10;2.30;;;19.60;65.00;;;;;;4978497;28;20032;-85
2022/08/18 04:48:10;;;;;;;6.70;3.08;;;19.60;65.00;;;;;;5007493;28;20025;-85
2022/08/18 04:50:38;;;;;;;2.88;2.33;;;19.60;65.00;;;;;;5028202;28;20021;-84
2022/08/18 04:55:51;;;;;;;3.17;2.67;;;19.60;65.10;;;;;;5029140;28;20030;-84
2022/08/18 04:58:20;;;;;;;4.00;2.55;;;19.60;65.10;;;;;;4993692;28;20048;-82
2022/08/18 05:00:56;;;;;;;4.72;2.45;;;19.60;65.10;;;;;;5026974;28;20033;-83
2022/08/18 05:03:25;;;;;;;2.97;2.38;;;19.60;65.10;;;;;;5013753;28;20029;-84
2022/08/18 05:05:57;;;;;;;4.20;2.53;;;19.60;65.10;;;;;;4999370;28;20029;-84
2022/08/18 05:08:24;;;;;;;3.25;2.20;;;19.60;65.20;;;;;;5007919;28;20037;-85
2022/08/18 05:10:58;;;;;;;4.05;2.90;;;19.60;65.10;;;;;;4976001;28;20052;-85
2022/08/18 05:13:25;;;;;;;4.25;2.65;;;19.60;65.20;;;;;;5004959;28;20056;-84
2022/08/18 05:15:56;;;;;;;4.28;2.90;;;19.60;65.20;;;;;;5009048;28;20021;-85
2022/08/18 05:18:23;;;;;;;2.30;2.10;;;19.60;65.30;;;;;;5030177;28;20042;-85
2022/08/18 05:20:54;;;;;;;3.83;1.98;;;19.60;65.30;;;;;;5015325;28;20369;-84
2022/08/18 05:23:20;;;;;;;5.70;2.88;;;19.50;65.20;;;;;;5010680;28;20029;-80
2022/08/18 05:25:46;;;;;;;4.70;2.28;;;19.60;65.40;;;;;;5025019;28;20029;-82
2022/08/18 05:28:13;;;;;;;7.07;3.00;;;19.60;65.40;;;;;;5010843;28;20036;-83
2022/08/18 05:30:40;;;;;;;3.75;2.88;;;19.50;65.30;;;;;;5013129;28;20033;-85
2022/08/18 05:33:11;;;;;;;3.40;2.38;;;19.50;65.40;;;;;;5009486;28;20029;-83
2022/08/18 05:35:47;;;;;;;4.07;2.60;;;19.50;65.40;;;;;;5025893;28;20051;-82
2022/08/18 05:38:36;;;;;;;4.47;3.08;;;19.60;65.70;;;;;;5025442;28;20044;-82
2022/08/18 05:41:13;;;;;;;6.68;3.17;;;19.50;65.60;;;;;;4974933;28;20408;-83
2022/08/18 05:43:41;;;;;;;3.92;3.03;;;19.50;65.50;;;;;;5009515;28;20041;-83
2022/08/18 05:46:09;;;;;;;5.05;2.90;;;19.50;65.50;;;;;;5030687;28;20530;-82
2022/08/18 05:48:36;;;;;;;2.50;2.30;;;19.50;65.60;;;;;;4996735;28;20040;-84
2022/08/18 05:51:14;;;;;;;4.53;3.20;;;19.50;65.60;;;;;;5029972;28;20022;-82
2022/08/18 05:56:47;;;;;;;6.88;4.20;;;19.50;66.00;;;;;;5016815;28;20515;-81
2022/08/18 05:59:36;;;;;;;5.78;3.80;;;19.60;66.70;;;;;;5015590;28;20266;-81
2022/08/18 06:02:34;;;;;;;6.10;4.07;;;19.60;67.30;;;;;;5030588;28;20089;-82
2022/08/18 06:05:12;;;;;;;6.05;4.25;;;19.60;67.60;;;;;;5018182;28;20037;-85
2022/08/18 06:07:53;;;;;;;7.20;4.60;;;19.60;67.80;;;;;;5016077;28;20138;-86
2022/08/18 06:10:19;;;;;;;7.57;4.03;;;19.70;68.20;;;;;;4993761;28;20109;-82
2022/08/18 06:12:52;;;;;;;8.48;4.18;;;19.70;68.10;;;;;;5027416;28;20299;-86
2022/08/18 06:15:34;;;;;;;7.22;3.92;;;19.80;68.40;;;;;;5035217;28;20029;-84
2022/08/18 06:18:12;;;;;;;7.15;3.40;;;19.90;68.40;;;;;;5045981;28;20072;-87
2022/08/18 06:21:22;;;;;;;5.18;3.22;;;20.00;68.30;;;;;;5052064;28;20021;-87
2022/08/18 06:24:07;;;;;;;7.15;3.85;;;20.00;68.20;;;;;;5048572;28;20045;-86
2022/08/18 06:26:47;;;;;;;5.03;3.45;;;20.10;68.00;;;;;;5039575;28;20113;-82
2022/08/18 06:29:27;;;;;;;6.47;4.68;;;20.10;67.90;;;;;;5009268;28;20021;-85
2022/08/18 06:32:16;;;;;;;5.72;4.07;;;20.20;68.00;;;;;;5010022;28;20030;-84
2022/08/18 06:34:49;;;;;;;7.20;4.53;;;20.30;67.90;;;;;;5015837;28;20033;-83
2022/08/18 06:37:32;;;;;;;6.40;3.53;;;20.40;67.90;;;;;;4991565;28;20453;-82
2022/08/18 06:39:59;;;;;;;6.90;3.95;;;20.50;68.00;;;;;;5023369;28;20123;-85
2022/08/18 06:42:30;;;;;;;6.95;3.45;;;20.50;67.70;;;;;;5032852;28;20033;-85
2022/08/18 06:45:11;;;;;;;5.97;3.72;;;20.60;67.70;;;;;;5011274;28;20158;-85
2022/08/18 06:47:58;;;;;;;6.97;3.97;;;20.70;67.80;;;;;;5004242;28;20228;-88
2022/08/18 06:50:41;;;;;;;6.15;3.95;;;20.80;67.70;;;;;;5023123;28;20037;-86
2022/08/18 06:53:07;;;;;;;6.43;4.38;;;20.80;67.50;;;;;;4997905;28;20115;-84
2022/08/18 06:55:35;;;;;;;5.55;3.40;;;20.80;67.40;;;;;;5022390;28;20289;-85
2022/08/18 06:58:18;;;;;;;6.07;4.18;;;20.90;67.50;;;;;;5010872;28;20515;-84
2022/08/18 07:00:50;;;;;;;;;;;21.10;67.80;;;;;;5025241;28;20049;-83
2022/08/18 07:03:20;;;;;;;7.00;4.10;;;21.30;67.40;;;;;;5023695;28;19913;-82
2022/08/18 07:06:04;;;;;;;4.57;3.42;;;21.50;67.00;;;;;;5032457;28;20079;-86
2022/08/18 07:08:33;;;;;;;6.63;3.97;;;21.60;67.00;;;;;;4992865;28;20528;-84
2022/08/18 07:11:27;;;;;;;5.43;4.05;;;21.60;66.70;;;;;;5024207;28;20090;-85
2022/08/18 07:14:17;;;;;;;8.73;4.05;;;21.70;66.80;;;;;;5010575;28;20115;-87
2022/08/18 07:16:43;;;;;;;5.32;3.25;;;21.80;66.80;;;;;;5011206;28;20041;-89
2022/08/18 07:19:11;;;;;;;7.43;4.45;;;21.80;66.60;;;;;;5012233;28;20029;-89
2022/08/18 07:21:39;;;;;;;10.80;3.75;;;21.90;67.30;;;;;;4997809;28;20045;-88
2022/08/18 07:24:27;;;;;;;6.00;3.42;;;22.00;67.20;;;;;;4983049;28;20519;-89
2022/08/18 07:27:06;;;;;;;7.90;3.42;;;22.20;66.70;;;;;;5026848;28;20052;-85
2022/08/18 07:30:04;;;;;;;12.48;5.15;;;22.40;66.60;;;;;;5029631;28;20135;-85
2022/08/18 07:32:53;;;;;;;6.53;4.03;;;22.50;66.40;;;;;;4981765;28;20043;-85
2022/08/18 07:35:48;;;;;;;5.00;3.15;;;22.70;66.40;;;;;;4987286;28;20710;-83
2022/08/18 07:38:23;;;;;;;5.38;3.22;;;22.70;66.20;;;;;;4997662;28;20087;-85
2022/08/18 07:41:12;;;;;;;6.30;4.70;;;22.80;66.20;;;;;;5027707;28;20040;-83
2022/08/18 07:43:42;;;;;;;7.20;4.13;;;22.90;66.10;;;;;;5013440;28;20040;-83
2022/08/18 07:46:20;;;;;;;7.55;3.83;;;22.90;65.90;;;;;;5013230;28;20029;-89
2022/08/18 07:48:46;;;;;;;5.22;3.58;;;23.10;66.00;;;;;;5015671;28;20057;-89
2022/08/18 07:51:23;;;;;;;6.47;4.15;;;23.20;65.90;;;;;;5011923;28;20053;-90
2022/08/18 07:53:59;;;;;;;6.03;3.95;;;23.30;65.80;;;;;;5029227;28;20219;-90
2022/08/18 07:56:28;;;;;;;11.73;4.88;;;23.50;66.30;;;;;;5032849;28;20030;-90
2022/08/18 07:59:02;;;;;;;6.43;4.03;;;23.70;65.60;;;;;;5020474;28;20479;-87
2022/08/18 08:01:51;;;;;;;8.38;4.22;;;23.90;65.50;;;;;;5031121;28;20022;-88
2022/08/18 08:04:33;;;;;;;5.30;4.20;;;24.20;65.30;;;;;;5027079;28;20049;-86
2022/08/18 08:07:13;;;;;;;9.73;4.63;;;24.40;65.10;;;;;;4984255;28;20037;-85
2022/08/18 08:09:45;;;;;;;7.32;4.00;;;24.60;65.00;;;;;;5002095;28;20025;-85
2022/08/18 08:12:36;;;;;;;7.60;4.07;;;24.70;64.80;;;;;;5004613;28;20033;-91
2022/08/18 08:15:32;;;;;;;4.85;3.97;;;24.90;64.70;;;;;;5031962;28;20038;-87
2022/08/18 08:18:24;;;;;;;5.65;3.83;;;25.00;64.50;;;;;;5031167;28;20033;-87
2022/08/18 08:21:07;;;;;;;6.70;4.20;;;25.10;64.20;;;;;;5016277;28;20558;-82
2022/08/18 08:23:52;;;;;;;;;;;25.20;63.70;;;;;;5000015;28;20374;-85
2022/08/18 08:27:03;;;;;;;6.75;4.18;;;25.20;63.90;;;;;;5027763;28;19917;-84
2022/08/18 08:29:50;;;;;;;9.75;5.25;;;25.40;63.70;;;;;;5029908;28;20041;-84
2022/08/18 08:32:31;;;;;;;5.72;3.25;;;25.50;63.50;;;;;;5017527;28;20024;-86
2022/08/18 08:35:11;;;;;;;6.88;4.00;;;25.60;63.20;;;;;;5011615;28;20041;-86
2022/08/18 08:38:06;;;;;;;7.55;4.15;;;25.70;63.00;;;;;;5013565;28;20042;-83
2022/08/18 08:40:53;;;;;;;5.50;4.70;;;25.70;63.20;;;;;;5015391;28;20102;-89
2022/08/18 08:43:29;;;;;;;6.07;4.30;;;25.80;63.20;;;;;;5033633;28;20040;-85
2022/08/18 08:46:20;;;;;;;6.03;4.50;;;25.70;62.50;;;;;;5009601;28;20035;-87
2022/08/18 08:48:55;;;;;;;5.15;3.95;;;25.80;62.20;;;;;;4990124;28;20041;-84
2022/08/18 08:51:30;;;;;;;6.13;3.83;;;25.80;62.20;;;;;;5010424;28;20152;-87
2022/08/18 08:54:01;;;;;;;4.65;3.83;;;25.80;62.20;;;;;;5027024;28;20063;-83
2022/08/18 08:56:35;;;;;;;6.28;4.10;;;25.80;62.10;;;;;;5027571;28;20035;-89
2022/08/18 08:59:08;;;;;;;6.40;3.92;;;25.90;61.50;;;;;;4988452;28;20042;-89
2022/08/18 09:02:15;;;;;;;6.60;3.83;;;25.90;61.80;;;;;;5002806;28;20100;-88
2022/08/18 09:05:15;;;;;;;4.45;3.55;;;26.00;61.60;;;;;;4985588;28;20026;-88
2022/08/18 09:08:05;;;;;;;5.30;4.15;;;26.10;61.40;;;;;;4987313;28;20124;-86
2022/08/18 09:11:15;;;;;;;6.53;4.85;;;26.30;61.20;;;;;;5002129;28;20030;-93
2022/08/18 09:13:58;;;;;;;4.93;3.80;;;26.40;60.70;;;;;;4969132;28;20057;-85
2022/08/18 09:16:49;;;;;;;7.20;4.50;;;26.50;60.60;;;;;;4987524;28;20054;-84
2022/08/18 09:19:46;;;;;;;5.15;4.32;;;26.50;60.30;;;;;;5000394;28;20103;-86
2022/08/18 09:22:30;;;;;;;7.22;4.13;;;26.40;60.20;;;;;;5005072;28;20029;-88
2022/08/18 09:24:57;;;;;;;5.13;4.03;;;26.40;60.30;;;;;;4987308;28;20034;-87
2022/08/18 09:27:36;;;;;;;5.72;4.72;;;26.20;60.40;;;;;;5004525;28;20195;-88
2022/08/18 09:30:06;;;;;;;6.03;4.35;;;26.00;60.40;;;;;;4988195;28;20321;-87
2022/08/18 09:32:41;;;;;;;5.28;4.40;;;25.90;60.70;;;;;;4988810;28;20483;-86
2022/08/18 09:35:32;;;;;;;4.47;4.00;;;25.80;60.80;;;;;;4956082;28;20038;-86
2022/08/18 09:41:31;;;;;;;8.23;5.38;;;25.90;60.70;;;;;;4992165;28;20061;-87
2022/08/18 09:44:08;;;;;;;6.32;4.72;;;26.20;60.50;;;;;;4990547;28;20089;-92
2022/08/18 09:46:45;;;;;;;6.07;4.55;;;26.40;60.10;;;;;;5009261;28;20022;-88
2022/08/18 09:49:37;;;;;;;7.30;5.45;;;26.60;59.70;;;;;;4999532;28;20014;-88
2022/08/18 09:52:22;;;;;;;8.25;4.80;;;26.70;59.30;;;;;;5021678;28;20092;-87
2022/08/18 09:54:52;;;;;;;6.18;4.55;;;26.90;59.00;;;;;;5007707;28;20076;-86
2022/08/18 09:57:23;;;;;;;5.18;4.07;;;26.90;58.90;;;;;;5031890;28;20053;-88
2022/08/18 09:59:51;;;;;;;5.25;4.80;;;27.00;58.80;;;;;;5018182;28;20041;-90
2022/08/18 10:02:28;;;;;;;5.90;4.70;;;27.00;58.60;;;;;;5022643;28;20053;-89
2022/08/18 10:05:25;;;;;;;18.40;5.22;;;27.20;58.30;;;;;;5037704;28;20232;-84
2022/08/18 10:08:02;;;;;;;6.07;4.05;;;27.40;57.80;;;;;;5003109;28;20037;-89
2022/08/18 10:10:50;;;;;;;6.53;4.15;;;27.60;57.70;;;;;;5017057;28;20369;-84
2022/08/18 10:13:46;;;;;;;5.05;4.13;;;27.70;57.30;;;;;;5029909;28;20033;-94
2022/08/18 10:16:18;;;;;;;7.03;4.00;;;27.80;57.10;;;;;;5002558;28;20026;-86
2022/08/18 10:19:09;;;;;;;5.57;3.97;;;27.90;57.00;;;;;;5011728;28;20292;-87
2022/08/18 10:22:00;;;;;;;7.20;4.03;;;28.00;56.70;;;;;;5013494;28;20122;-90
2022/08/18 10:24:44;;;;;;;6.72;4.05;;;28.10;56.60;;;;;;5005810;28;20030;-90
2022/08/18 10:27:45;;;;;;;6.43;4.20;;;28.10;56.40;;;;;;5029633;28;20026;-82
2022/08/18 10:30:32;;;;;;;5.70;3.42;;;28.10;56.30;;;;;;5010701;28;20042;-87
2022/08/18 10:33:00;;;;;;;4.20;3.65;;;28.10;56.20;;;;;;5015855;28;20099;-86
2022/08/18 10:35:35;;;;;;;5.05;3.72;;;28.20;56.30;;;;;;5017153;28;20461;-86
2022/08/18 10:38:04;;;;;;;3.58;3.03;;;28.20;56.00;;;;;;5015493;28;20037;-88
2022/08/18 10:40:31;;;;;;;3.28;2.88;;;28.20;55.90;;;;;;5012908;28;20030;-87
2022/08/18 10:43:29;;;;;;;3.85;3.13;;;28.10;55.80;;;;;;5017541;28;20033;-83
2022/08/18 10:45:57;;;;;;;6.13;3.35;;;28.20;56.30;;;;;;5013351;28;20030;-88
2022/08/18 10:48:29;;;;;;;6.85;3.70;;;28.20;55.80;;;;;;5003988;28;20148;-87
2022/08/18 10:51:05;;;;;;;4.10;3.40;;;28.20;55.60;;;;;;5001905;28;20030;-88
2022/08/18 10:54:14;;;;;;;4.97;3.70;;;28.30;55.50;;;;;;4996485;28;20030;-96
2022/08/18 10:56:54;;;;;;;4.35;3.95;;;28.30;55.40;;;;;;5009942;28;20117;-88
2022/08/18 10:59:39;;;;;;;4.85;3.67;;;28.30;55.60;;;;;;5027907;28;20049;-90
2022/08/18 11:02:09;;;;;;;5.15;3.05;;;28.30;55.50;;;;;;5015130;28;20032;-86
2022/08/18 11:04:47;;;;;;;3.20;2.90;;;28.30;55.70;;;;;;4992422;28;20060;-84
2022/08/18 11:07:25;;;;;;;5.63;3.53;;;28.40;55.50;;;;;;4994471;28;20491;-86
2022/08/18 11:09:56;;;;;;;6.20;3.60;;;28.50;55.30;;;;;;5023842;28;20018;-86
2022/08/18 11:13:23;;;;;;;8.00;3.53;;;28.50;55.20;;;;;;4997320;28;20130;-89
2022/08/18 11:15:51;;;;;;;5.57;3.90;;;28.70;54.90;;;;;;4961807;28;20043;-90
2022/08/18 11:18:17;;;;;;;6.72;4.03;;;28.80;55.00;;;;;;4970747;28;20050;-93
2022/08/18 11:20:43;;;;;;;8.60;4.05;;;28.90;54.70;;;;;;4994879;28;20303;-89
2022/08/18 11:23:16;;;;;;;6.60;3.83;;;29.10;54.50;;;;;;5019921;28;20026;-87
2022/08/18 11:25:44;;;;;;;5.80;4.05;;;29.30;54.10;;;;;;5019010;28;20033;-87
2022/08/18 11:28:19;;;;;;;6.80;3.55;;;29.40;53.80;;;;;;5013658;28;20036;-89
2022/08/18 11:30:49;;;;;;;4.93;3.72;;;29.50;53.50;;;;;;4979827;28;20014;-89
2022/08/18 11:33:17;;;;;;;4.78;4.05;;;29.60;53.60;;;;;;5012062;28;20045;-87
2022/08/18 11:35:48;;;;;;;6.72;3.90;;;29.70;53.30;;;;;;4981875;28;20038;-87
2022/08/18 11:38:15;;;;;;;6.57;3.83;;;29.80;53.10;;;;;;4983034;28;20059;-88
2022/08/18 11:40:43;;;;;;;6.18;3.38;;;29.90;52.90;;;;;;5018188;28;20029;-89
2022/08/18 11:43:26;;;;;;;6.55;3.40;;;30.00;52.70;;;;;;5013535;28;20033;-90
2022/08/18 11:46:26;;;;;;;5.68;3.50;;;30.00;52.40;;;;;;5018529;28;20033;-90
2022/08/18 11:48:52;;;;;;;5.03;3.58;;;30.10;52.20;;;;;;5019227;28;20033;-89
2022/08/18 11:51:27;;;;;;;5.28;3.03;;;30.20;52.30;;;;;;5027918;28;20038;-88
2022/08/18 11:54:18;;;;;;;7.45;3.33;;;30.30;51.90;;;;;;5024045;28;20069;-90
2022/08/18 11:56:44;;;;;;;4.32;2.63;;;30.50;51.80;;;;;;5038296;28;20041;-89
2022/08/18 11:59:25;;;;;;;3.08;2.78;;;30.60;51.70;;;;;;5053520;28;20038;-91
2022/08/18 12:01:53;;;;;;;4.07;2.75;;;30.80;51.30;;;;;;5035084;28;20043;-95
2022/08/18 12:04:19;;;;;;;3.17;2.45;;;30.90;51.20;;;;;;5021318;28;20045;-93
2022/08/18 12:06:52;;;;;;;3.70;2.33;;;31.00;51.00;;;;;;5045242;28;20082;-95
2022/08/18 12:09:39;;;;;;;4.47;2.75;;;31.20;50.70;;;;;;5026475;28;20026;-95
2022/08/18 12:12:17;;;;;;;3.70;2.63;;;31.30;50.50;;;;;;5051053;28;20077;-95
2022/08/18 12:15:11;;;;;;;3.33;2.35;;;31.40;50.10;;;;;;5039198;28;20049;-90
2022/08/18 12:17:37;;;;;;;4.75;2.80;;;31.40;49.90;;;;;;5035416;28;20045;-95
2022/08/18 12:20:07;;;;;;;3.15;2.25;;;31.50;50.00;;;;;;5023677;28;20033;-93
2022/08/18 12:22:35;;;;;;;3.45;2.10;;;31.50;49.90;;;;;;5024234;28;20353;-94
2022/08/18 12:25:03;;;;;;;3.13;1.98;;;31.60;49.80;;;;;;5025440;28;20013;-93
2022/08/18 12:27:32;;;;;;;3.55;2.40;;;31.70;49.60;;;;;;5020929;28;20029;-93
2022/08/18 12:30:02;;;;;;;3.03;2.20;;;31.70;49.40;;;;;;5022184;28;20099;-95
2022/08/18 12:32:32;;;;;;;2.33;2.03;;;31.70;49.30;;;;;;5018171;28;20038;-95
2022/08/18 12:34:58;;;;;;;3.10;2.30;;;31.80;49.20;;;;;;5024794;28;20205;-95
2022/08/18 12:37:27;;;;;;;2.85;2.38;;;31.80;49.10;;;;;;5019601;28;20038;-96
2022/08/18 12:39:55;;;;;;;3.10;2.25;;;31.80;49.00;;;;;;5016302;28;20026;-87
2022/08/18 12:42:22;;;;;;;4.28;2.50;;;31.70;48.90;;;;;;4994553;28;20056;-87
2022/08/18 12:44:48;;;;;;;2.83;2.17;;;31.80;49.00;;;;;;5011346;28;20028;-86
2022/08/18 12:47:20;;;;;;;2.80;2.22;;;31.70;49.00;;;;;;4998933;28;20577;-87
2022/08/18 12:49:47;;;;;;;3.72;2.15;;;31.70;48.80;;;;;;5030677;28;20059;-92
2022/08/18 12:52:13;;;;;;;2.50;2.30;;;31.70;48.90;;;;;;5015146;28;20061;-86
2022/08/18 12:54:42;;;;;;;2.08;1.88;;;31.80;48.70;;;;;;4985882;28;20078;-90
2022/08/18 12:57:30;;;;;;;2.95;1.92;;;32.00;48.60;;;;;;5018753;28;20156;-91
2022/08/18 12:59:58;;;;;;;4.70;2.28;;;32.30;49.00;;;;;;5015424;28;20048;-94
2022/08/18 13:02:24;;;;;;;2.60;1.83;;;32.60;48.10;;;;;;5009981;28;20037;-93
2022/08/18 13:04:49;;;;;;;2.95;2.15;;;32.90;47.80;;;;;;4985262;28;20021;-94
2022/08/18 13:07:15;;;;;;;2.30;2.10;;;33.00;47.40;;;;;;4999365;28;20025;-94
2022/08/18 13:09:42;;;;;;;2.40;1.90;;;33.20;47.10;;;;;;5017155;28;20030;-95
2022/08/18 13:12:09;;;;;;;3.00;2.03;;;33.40;46.90;;;;;;5011787;28;20307;-94
2022/08/18 13:14:35;;;;;;;2.08;1.85;;;33.60;47.10;;;;;;5027740;28;20026;-90
2022/08/18 13:17:01;;;;;;;2.40;2.17;;;33.70;46.30;;;;;;5028323;28;20133;-96
2022/08/18 13:19:27;;;;;;;2.50;2.17;;;33.80;46.20;;;;;;5000576;28;20037;-94
2022/08/18 13:21:53;;;;;;;5.80;2.40;;;33.80;46.10;;;;;;5001624;28;20036;-94
2022/08/18 13:24:19;;;;;;;3.53;1.90;;;33.80;46.10;;;;;;5003295;28;20032;-93
2022/08/18 13:26:46;;;;;;;2.10;1.90;;;33.80;46.20;;;;;;5013963;28;20226;-94
2022/08/18 13:29:16;;;;;;;4.68;2.22;;;33.80;46.10;;;;;;4998221;28;20072;-96
2022/08/18 13:31:43;;;;;;;3.22;1.95;;;33.90;45.80;;;;;;5027175;28;20040;-93
2022/08/18 13:34:09;;;;;;;2.15;1.90;;;34.00;45.80;;;;;;5027623;28;20045;-90
2022/08/18 13:36:44;;;;;;;2.20;2.00;;;34.10;45.60;;;;;;4998481;28;20040;-93
2022/08/18 13:39:18;;;;;;;2.17;1.60;;;34.20;45.50;;;;;;4999260;28;20392;-92
2022/08/18 13:41:46;;;;;;;2.30;2.10;;;34.30;45.10;;;;;;5027796;28;20025;-95